Time;durP1;ratioP1;P1;durP2;ratioP2;P2;SDS_P1;SDS_P2;PMS_P1;PMS_P2;Temp;Humidity;BMP_temperature;BMP_pressure;BME280_temperature;BME280_humidity;BME280_pressure;Samples;Min_cycle;Max_cycle;Signal;HPM_P1;HPM_P2
2023/04/09 00:01:07;;;;;;;4.38;2.85;;;11.50;99.90;;;;;;5053555;28;20522;-45
2023/04/09 00:03:33;;;;;;;4.57;3.10;;;11.50;99.90;;;;;;5054072;28;20036;-44
2023/04/09 00:05:58;;;;;;;4.00;3.25;;;11.50;99.90;;;;;;5054350;28;20029;-45
2023/04/09 00:08:24;;;;;;;4.10;3.30;;;11.50;99.90;;;;;;5054556;28;20028;-45
2023/04/09 00:10:51;;;;;;;4.00;3.00;;;11.50;99.90;;;;;;5054442;28;20427;-44
2023/04/09 00:13:17;;;;;;;3.80;2.97;;;11.50;99.90;;;;;;5053440;28;20030;-45
2023/04/09 00:15:44;;;;;;;4.43;3.30;;;11.40;99.90;;;;;;5053488;28;20511;-45
2023/04/09 00:18:09;;;;;;;4.18;3.00;;;11.40;99.90;;;;;;5054175;28;20025;-45
2023/04/09 00:20:35;;;;;;;4.85;3.38;;;11.40;99.90;;;;;;5054213;28;20348;-45
2023/04/09 00:23:00;;;;;;;5.03;2.95;;;11.40;99.90;;;;;;5052749;28;20029;-45
2023/04/09 00:25:27;;;;;;;5.05;3.08;;;11.40;99.90;;;;;;5053715;28;20055;-47
2023/04/09 00:27:54;;;;;;;4.57;3.22;;;11.50;99.90;;;;;;5052669;28;20021;-46
2023/04/09 00:30:21;;;;;;;4.10;3.13;;;11.50;99.90;;;;;;5052937;28;20370;-47
2023/04/09 00:32:47;;;;;;;4.25;3.38;;;11.40;99.90;;;;;;5053089;28;20025;-47
2023/04/09 00:35:12;;;;;;;4.40;2.88;;;11.40;99.90;;;;;;5052842;28;20017;-45
2023/04/09 00:37:38;;;;;;;3.83;3.20;;;11.40;99.90;;;;;;5052664;28;20402;-45
2023/04/09 00:40:04;;;;;;;3.63;2.90;;;11.40;99.90;;;;;;5053978;28;20079;-45
2023/04/09 00:42:35;;;;;;;4.63;3.08;;;11.40;99.90;;;;;;5052003;28;20025;-46
2023/04/09 00:45:01;;;;;;;4.32;3.20;;;11.40;99.90;;;;;;5052903;28;20013;-45
2023/04/09 00:47:28;;;;;;;10.32;5.22;;;11.40;99.90;;;;;;5050763;28;20494;-46
2023/04/09 00:49:54;;;;;;;4.80;3.55;;;11.40;99.90;;;;;;5053144;28;20502;-44
2023/04/09 00:52:20;;;;;;;5.13;3.50;;;11.40;99.90;;;;;;5053159;28;20021;-45
2023/04/09 00:54:50;;;;;;;4.15;3.22;;;11.40;99.90;;;;;;5052376;28;20024;-45
2023/04/09 00:57:16;;;;;;;3.47;3.03;;;11.40;99.90;;;;;;5052034;28;20365;-43
2023/04/09 00:59:45;;;;;;;5.15;3.40;;;11.40;99.90;;;;;;5052421;28;20075;-44
2023/04/09 01:02:11;;;;;;;5.47;3.28;;;11.40;99.90;;;;;;5052368;28;20057;-45
2023/04/09 01:04:39;;;;;;;4.28;3.28;;;11.30;99.90;;;;;;5052286;28;20493;-46
2023/04/09 01:07:14;;;;;;;4.38;3.45;;;11.40;99.90;;;;;;5051686;28;20029;-44
2023/04/09 01:09:46;;;;;;;4.43;3.20;;;11.40;99.90;;;;;;5052320;28;20033;-46
2023/04/09 01:12:24;;;;;;;4.43;3.50;;;11.30;99.90;;;;;;5052210;28;20017;-44
2023/04/09 01:14:53;;;;;;;4.30;3.10;;;11.40;99.90;;;;;;5052571;28;20486;-44
2023/04/09 01:17:57;;;;;;;4.25;3.45;;;11.40;99.90;;;;;;5051626;28;20039;-44
2023/04/09 01:20:39;;;;;;;4.22;3.80;;;11.30;99.90;;;;;;5049350;28;20032;-44
2023/04/09 01:23:19;;;;;;;3.95;3.15;;;11.30;99.90;;;;;;5052451;28;20029;-44
2023/04/09 01:25:50;;;;;;;4.63;3.17;;;11.30;99.90;;;;;;5051433;28;20021;-44
2023/04/09 01:28:24;;;;;;;5.05;3.47;;;11.40;99.90;;;;;;5051804;28;20028;-46
2023/04/09 01:30:56;;;;;;;5.72;3.58;;;11.30;99.90;;;;;;5051873;28;20526;-46
2023/04/09 01:33:24;;;;;;;4.88;3.05;;;11.30;99.90;;;;;;5051604;28;20120;-45
2023/04/09 01:35:51;;;;;;;4.63;3.47;;;11.30;99.90;;;;;;5051254;28;20021;-43
2023/04/09 01:38:19;;;;;;;3.95;3.03;;;11.30;99.90;;;;;;5051533;28;20033;-45
2023/04/09 01:40:45;;;;;;;4.15;3.08;;;11.30;99.90;;;;;;5051626;28;20045;-46
2023/04/09 01:43:12;;;;;;;5.22;3.50;;;11.30;99.90;;;;;;5050578;28;20383;-45
2023/04/09 01:45:39;;;;;;;4.10;3.10;;;11.30;99.90;;;;;;5052647;28;20029;-45
2023/04/09 01:48:05;;;;;;;3.92;3.08;;;11.30;99.90;;;;;;5052721;28;20353;-45
2023/04/09 01:50:32;;;;;;;4.70;2.97;;;11.30;99.90;;;;;;5052469;28;20178;-47
2023/04/09 01:53:00;;;;;;;3.95;3.20;;;11.30;99.90;;;;;;5052282;28;20029;-45
2023/04/09 01:55:25;;;;;;;4.55;3.55;;;11.30;99.90;;;;;;5052175;28;20035;-45
2023/04/09 01:57:51;;;;;;;4.38;3.15;;;11.30;99.90;;;;;;5051760;28;20111;-46
2023/04/09 02:00:17;;;;;;;5.28;3.33;;;11.30;99.90;;;;;;5052635;28;20029;-44
2023/04/09 02:03:08;;;;;;;4.90;3.60;;;11.30;99.90;;;;;;5051695;28;20037;-45
2023/04/09 02:05:40;;;;;;;3.92;3.08;;;11.30;99.90;;;;;;5052327;28;20035;-47
2023/04/09 02:08:09;;;;;;;4.97;3.60;;;11.30;99.90;;;;;;5051708;28;20491;-46
2023/04/09 02:10:36;;;;;;;4.53;3.40;;;11.30;99.90;;;;;;5051225;28;20418;-45
2023/04/09 02:13:05;;;;;;;4.40;3.33;;;11.30;99.90;;;;;;5051850;28;20021;-45
2023/04/09 02:15:33;;;;;;;5.07;3.55;;;11.30;99.90;;;;;;5051721;28;20437;-45
2023/04/09 02:17:58;;;;;;;4.22;3.20;;;11.30;99.90;;;;;;5051562;28;20090;-45
2023/04/09 02:20:24;;;;;;;4.35;3.35;;;11.30;99.90;;;;;;5051857;28;20430;-46
2023/04/09 02:22:50;;;;;;;4.28;3.42;;;11.30;99.90;;;;;;5052280;28;20099;-45
2023/04/09 02:25:15;;;;;;;3.75;3.10;;;11.30;99.90;;;;;;5052479;28;20025;-44
2023/04/09 02:27:41;;;;;;;4.07;2.92;;;11.30;99.90;;;;;;5051560;28;20479;-44
2023/04/09 02:30:07;;;;;;;4.05;3.13;;;11.20;99.90;;;;;;5051125;28;20017;-47
2023/04/09 02:32:33;;;;;;;4.18;3.30;;;11.30;99.90;;;;;;5051585;28;20021;-45
2023/04/09 02:34:58;;;;;;;3.33;2.83;;;11.30;99.90;;;;;;5051420;28;20036;-44
2023/04/09 02:37:24;;;;;;;6.45;3.28;;;11.30;99.90;;;;;;5051092;28;20029;-45
2023/04/09 02:39:50;;;;;;;4.00;3.10;;;11.30;99.90;;;;;;5051752;28;20454;-45
2023/04/09 02:42:16;;;;;;;4.30;3.55;;;11.30;99.90;;;;;;5052068;28;20112;-45
2023/04/09 02:44:43;;;;;;;3.65;3.28;;;11.20;99.90;;;;;;5052563;28;20052;-46
2023/04/09 02:47:08;;;;;;;4.75;3.20;;;11.30;99.90;;;;;;5054256;28;20029;-44
2023/04/09 02:49:34;;;;;;;4.47;3.47;;;11.20;99.90;;;;;;5055418;28;20036;-45
2023/04/09 02:52:00;;;;;;;4.18;3.50;;;11.20;99.90;;;;;;5055879;28;20032;-46
2023/04/09 02:54:25;;;;;;;4.53;3.33;;;11.20;99.90;;;;;;5053772;28;20479;-45
2023/04/09 02:56:51;;;;;;;4.85;3.45;;;11.20;99.90;;;;;;5054724;28;20090;-45
2023/04/09 02:59:17;;;;;;;3.97;3.38;;;11.30;99.90;;;;;;5055014;28;20026;-45
2023/04/09 03:01:42;;;;;;;4.95;3.40;;;11.20;99.90;;;;;;5055245;28;20056;-45
2023/04/09 03:04:08;;;;;;;4.43;3.10;;;11.20;99.90;;;;;;5055064;28;20044;-43
2023/04/09 03:06:33;;;;;;;4.53;3.30;;;11.20;99.90;;;;;;5055834;28;20494;-47
2023/04/09 03:08:59;;;;;;;4.38;3.35;;;11.20;99.90;;;;;;5055506;28;20100;-45
2023/04/09 03:11:25;;;;;;;4.38;3.28;;;11.20;99.90;;;;;;5056186;28;20021;-45
2023/04/09 03:13:50;;;;;;;4.30;3.40;;;11.20;99.90;;;;;;5054355;28;20025;-44
2023/04/09 03:16:16;;;;;;;4.00;3.13;;;11.20;99.90;;;;;;5054521;28;20032;-47
2023/04/09 03:18:41;;;;;;;5.57;3.47;;;11.20;99.90;;;;;;5054378;28;20029;-44
2023/04/09 03:21:08;;;;;;;3.03;2.60;;;11.20;99.90;;;;;;5055406;28;20028;-44
2023/04/09 03:23:34;;;;;;;4.72;3.40;;;11.20;99.90;;;;;;5055035;28;20056;-44
2023/04/09 03:26:03;;;;;;;4.90;3.40;;;11.20;99.90;;;;;;5053802;28;20491;-45
2023/04/09 03:28:30;;;;;;;4.85;3.30;;;11.20;99.90;;;;;;5055193;28;20086;-45
2023/04/09 03:30:56;;;;;;;4.45;2.97;;;11.20;99.90;;;;;;5054764;28;20017;-47
2023/04/09 03:33:21;;;;;;;5.60;3.67;;;11.20;99.90;;;;;;5054067;28;20032;-46
2023/04/09 03:35:48;;;;;;;4.28;3.13;;;11.20;99.90;;;;;;5055526;28;20070;-45
2023/04/09 03:38:13;;;;;;;3.58;3.10;;;11.20;99.90;;;;;;5054989;28;20513;-45
2023/04/09 03:40:40;;;;;;;4.25;3.50;;;11.20;99.90;;;;;;5054659;28;20032;-45
2023/04/09 03:43:06;;;;;;;5.13;3.70;;;11.20;99.90;;;;;;5054315;28;20083;-48
2023/04/09 03:45:32;;;;;;;5.68;3.85;;;11.20;99.90;;;;;;5053824;28;20028;-45
2023/04/09 03:47:57;;;;;;;5.25;3.60;;;11.20;99.90;;;;;;5054085;28;20567;-44
2023/04/09 03:50:23;;;;;;;4.75;3.55;;;11.20;99.90;;;;;;5054579;28;20033;-47
2023/04/09 03:52:48;;;;;;;4.47;3.13;;;11.20;99.90;;;;;;5054855;28;20109;-45
2023/04/09 03:55:14;;;;;;;4.80;3.53;;;11.20;99.90;;;;;;5054540;28;20021;-45
2023/04/09 03:57:40;;;;;;;4.97;3.28;;;11.20;99.90;;;;;;5054170;28;20075;-45
2023/04/09 04:00:06;;;;;;;4.32;3.28;;;11.20;99.90;;;;;;5054688;28;20425;-45
2023/04/09 04:02:32;;;;;;;4.75;3.50;;;11.10;99.90;;;;;;5054243;28;20214;-44
2023/04/09 04:04:58;;;;;;;4.47;3.58;;;11.20;99.90;;;;;;5054108;28;20021;-44
2023/04/09 04:07:24;;;;;;;4.43;3.28;;;11.10;99.90;;;;;;5053338;28;20029;-44
2023/04/09 04:09:50;;;;;;;4.80;3.50;;;11.20;99.90;;;;;;5053688;28;20398;-45
2023/04/09 04:12:16;;;;;;;4.55;3.47;;;11.10;99.90;;;;;;5053274;28;20025;-45
2023/04/09 04:14:42;;;;;;;4.82;3.58;;;11.10;99.90;;;;;;5054188;28;20063;-47
2023/04/09 04:17:07;;;;;;;5.03;3.45;;;11.10;99.90;;;;;;5053355;28;20387;-44
2023/04/09 04:19:34;;;;;;;3.88;3.30;;;11.20;99.90;;;;;;5054855;28;20056;-45
2023/04/09 04:22:00;;;;;;;5.53;4.05;;;11.10;99.90;;;;;;5054547;28;20028;-43
2023/04/09 04:24:25;;;;;;;4.70;3.58;;;11.10;99.90;;;;;;5054160;28;20025;-47
2023/04/09 04:26:51;;;;;;;4.45;3.42;;;11.20;99.90;;;;;;5052163;28;20052;-46
2023/04/09 04:29:16;;;;;;;5.13;3.60;;;11.20;99.90;;;;;;5053344;28;20024;-45
2023/04/09 04:31:42;;;;;;;5.60;3.80;;;11.10;99.90;;;;;;5053304;28;20078;-44
2023/04/09 04:34:08;;;;;;;4.30;3.58;;;11.10;99.90;;;;;;5052887;28;20025;-45
2023/04/09 04:36:33;;;;;;;5.35;3.60;;;11.10;99.90;;;;;;5052401;28;20538;-44
2023/04/09 04:38:59;;;;;;;5.35;3.30;;;11.10;99.90;;;;;;5054408;28;20032;-47
2023/04/09 04:41:24;;;;;;;5.93;3.60;;;11.10;99.90;;;;;;5052607;28;20639;-44
2023/04/09 04:43:50;;;;;;;6.35;4.63;;;11.10;99.90;;;;;;5053609;28;20025;-44
2023/04/09 04:46:16;;;;;;;5.07;3.60;;;11.10;99.90;;;;;;5052908;28;20104;-46
2023/04/09 04:48:41;;;;;;;5.13;3.85;;;11.10;99.90;;;;;;5053984;28;20382;-47
2023/04/09 04:51:07;;;;;;;4.68;3.70;;;11.10;99.90;;;;;;5053313;28;20597;-47
2023/04/09 04:53:32;;;;;;;4.68;3.80;;;11.10;99.90;;;;;;5053217;28;20025;-45
2023/04/09 04:55:58;;;;;;;6.13;3.97;;;11.10;99.90;;;;;;5051937;28;20111;-45
2023/04/09 04:58:24;;;;;;;5.07;3.70;;;11.10;99.90;;;;;;5052445;28;20475;-45
2023/04/09 05:00:50;;;;;;;5.65;3.78;;;11.10;99.90;;;;;;5052665;28;20029;-45
2023/04/09 05:03:16;;;;;;;5.32;3.95;;;11.10;99.90;;;;;;5053421;28;20090;-46
2023/04/09 05:05:41;;;;;;;4.55;3.50;;;11.10;99.90;;;;;;5052924;28;20021;-44
2023/04/09 05:08:07;;;;;;;6.03;3.90;;;11.10;99.90;;;;;;5052101;28;20028;-47
2023/04/09 05:10:33;;;;;;;4.95;3.60;;;11.00;99.90;;;;;;5052924;28;20071;-45
2023/04/09 05:12:58;;;;;;;5.22;3.60;;;11.10;99.90;;;;;;5052778;28;20028;-44
2023/04/09 05:15:24;;;;;;;5.03;4.20;;;11.00;99.90;;;;;;5053222;28;20399;-44
2023/04/09 05:17:49;;;;;;;4.53;3.65;;;11.00;99.90;;;;;;5053333;28;20021;-44
2023/04/09 05:20:15;;;;;;;4.93;3.80;;;11.10;99.90;;;;;;5052096;28;20025;-45
2023/04/09 05:22:41;;;;;;;5.57;4.45;;;11.10;99.90;;;;;;5052468;28;20028;-46
2023/04/09 05:25:07;;;;;;;5.85;4.70;;;11.10;99.90;;;;;;5052839;28;20383;-47
2023/04/09 05:27:32;;;;;;;9.02;5.00;;;11.10;99.90;;;;;;5051670;28;20110;-44
2023/04/09 05:29:58;;;;;;;6.22;4.53;;;11.00;99.90;;;;;;5053085;28;20155;-44
2023/04/09 05:32:24;;;;;;;6.47;4.43;;;11.10;99.90;;;;;;5052719;28;20094;-45
2023/04/09 05:34:50;;;;;;;5.72;4.32;;;11.10;99.90;;;;;;5052584;28;20035;-45
2023/04/09 05:37:15;;;;;;;4.82;3.88;;;11.00;99.90;;;;;;5052297;28;20028;-45
2023/04/09 05:39:42;;;;;;;5.13;4.10;;;11.00;99.90;;;;;;5052827;28;20025;-45
2023/04/09 05:42:08;;;;;;;6.63;4.45;;;11.10;99.90;;;;;;5051184;28;20056;-46
2023/04/09 05:44:33;;;;;;;6.65;4.43;;;11.00;99.90;;;;;;5051811;28;20060;-44
2023/04/09 05:46:59;;;;;;;5.82;3.97;;;11.00;99.90;;;;;;5051882;28;20033;-47
2023/04/09 05:49:24;;;;;;;5.63;3.95;;;11.00;99.90;;;;;;5052930;28;20017;-44
2023/04/09 05:51:50;;;;;;;4.75;3.72;;;11.00;99.90;;;;;;5052547;28;20106;-45
2023/04/09 05:54:16;;;;;;;5.15;3.78;;;11.00;99.90;;;;;;5051928;28;20376;-45
2023/04/09 05:56:42;;;;;;;6.55;4.72;;;11.00;99.90;;;;;;5052160;28;20074;-44
2023/04/09 05:59:08;;;;;;;6.10;4.30;;;11.00;99.90;;;;;;5051706;28;20029;-47
2023/04/09 06:01:33;;;;;;;4.78;4.00;;;11.00;99.90;;;;;;5052100;28;20103;-45
2023/04/09 06:03:59;;;;;;;4.75;3.80;;;11.00;99.90;;;;;;5053033;28;20131;-43
2023/04/09 06:06:26;;;;;;;5.60;4.22;;;11.00;99.90;;;;;;5050970;28;20025;-44
2023/04/09 06:08:51;;;;;;;8.02;4.78;;;11.00;99.90;;;;;;5053390;28;20025;-44
2023/04/09 06:11:17;;;;;;;4.88;3.85;;;11.00;99.90;;;;;;5051687;28;20055;-47
2023/04/09 06:13:43;;;;;;;5.38;4.10;;;11.00;99.90;;;;;;5051895;28;20017;-45
2023/04/09 06:16:09;;;;;;;5.72;4.15;;;11.00;99.90;;;;;;5051876;28;20387;-44
2023/04/09 06:18:36;;;;;;;5.95;4.10;;;11.00;99.90;;;;;;5052116;28;20024;-45
2023/04/09 06:21:08;;;;;;;4.97;3.85;;;11.00;99.90;;;;;;5051479;28;20112;-46
2023/04/09 06:23:35;;;;;;;6.45;4.60;;;11.00;99.90;;;;;;5052245;28;20032;-45
2023/04/09 06:26:02;;;;;;;5.72;4.22;;;11.00;99.90;;;;;;5050896;28;20063;-45
2023/04/09 06:28:28;;;;;;;6.13;4.45;;;11.00;99.90;;;;;;5052797;28;20111;-47
2023/04/09 06:30:54;;;;;;;8.65;4.20;;;11.00;99.90;;;;;;5052245;28;20021;-45
2023/04/09 06:33:21;;;;;;;4.82;4.05;;;11.00;99.90;;;;;;5052584;28;20541;-44
2023/04/09 06:35:47;;;;;;;5.07;4.05;;;11.00;99.90;;;;;;5051147;28;20482;-47
2023/04/09 06:38:13;;;;;;;7.10;4.20;;;10.90;99.90;;;;;;5050878;28;20491;-44
2023/04/09 06:40:39;;;;;;;5.70;4.05;;;11.00;99.90;;;;;;5051402;28;20044;-44
2023/04/09 06:43:05;;;;;;;5.82;3.90;;;11.00;99.90;;;;;;5050759;28;20479;-45
2023/04/09 06:45:32;;;;;;;4.55;3.33;;;11.00;99.90;;;;;;5051669;28;20040;-45
2023/04/09 06:47:58;;;;;;;4.90;3.90;;;11.00;99.90;;;;;;5051567;28;20036;-43
2023/04/09 06:50:24;;;;;;;4.35;3.55;;;11.00;99.90;;;;;;5051864;28;20033;-45
2023/04/09 06:52:51;;;;;;;5.22;3.97;;;11.00;99.90;;;;;;5051650;28;20032;-44
2023/04/09 06:55:17;;;;;;;5.88;3.83;;;11.00;99.90;;;;;;5052043;28;20074;-46
2023/04/09 06:57:42;;;;;;;6.60;4.20;;;11.00;99.90;;;;;;5052055;28;20035;-46
2023/04/09 07:00:09;;;;;;;4.80;3.60;;;11.00;99.90;;;;;;5051094;28;20029;-43
2023/04/09 07:02:35;;;;;;;4.57;3.75;;;11.10;99.90;;;;;;5051749;28;20055;-47
2023/04/09 07:05:02;;;;;;;4.38;3.50;;;11.10;99.90;;;;;;5051821;28;20025;-44
2023/04/09 07:07:27;;;;;;;4.03;3.58;;;11.10;99.90;;;;;;5050234;28;20021;-44
2023/04/09 07:09:53;;;;;;;4.10;3.08;;;11.10;99.90;;;;;;5051968;28;20021;-44
2023/04/09 07:12:33;;;;;;;5.40;3.60;;;11.10;99.90;;;;;;5051101;28;20108;-45
2023/04/09 07:15:04;;;;;;;5.10;3.60;;;11.10;99.90;;;;;;5050546;28;20641;-43
2023/04/09 07:17:31;;;;;;;4.35;3.33;;;11.20;99.90;;;;;;5050586;28;20036;-46
2023/04/09 07:19:56;;;;;;;4.20;3.17;;;11.20;99.90;;;;;;5051087;28;20036;-45
2023/04/09 07:22:24;;;;;;;3.25;2.70;;;11.20;99.90;;;;;;5051723;28;20402;-45
2023/04/09 07:24:52;;;;;;;3.92;3.05;;;11.20;99.90;;;;;;5051006;28;20021;-47
2023/04/09 07:27:23;;;;;;;4.10;3.22;;;11.20;99.90;;;;;;5049913;28;20025;-44
2023/04/09 07:29:49;;;;;;;5.07;3.22;;;11.20;99.90;;;;;;5050311;28;20032;-43
2023/04/09 07:32:15;;;;;;;15.95;12.02;;;11.20;99.90;;;;;;5052265;28;20503;-44
2023/04/09 07:34:42;;;;;;;18.10;11.98;;;11.20;99.90;;;;;;5055135;28;20538;-46
2023/04/09 07:37:08;;;;;;;15.45;11.00;;;11.20;99.90;;;;;;5055395;28;20032;-44
2023/04/09 07:39:33;;;;;;;14.98;10.10;;;11.20;99.90;;;;;;5055700;28;20295;-44
2023/04/09 07:42:03;;;;;;;13.02;9.98;;;11.20;99.90;;;;;;5054292;28;20063;-44
2023/04/09 07:44:29;;;;;;;13.20;9.75;;;11.20;99.90;;;;;;5055249;28;20422;-44
2023/04/09 07:46:55;;;;;;;13.68;9.48;;;11.20;99.90;;;;;;5053312;28;20029;-45
2023/04/09 07:49:21;;;;;;;13.02;9.20;;;11.20;99.90;;;;;;5056158;28;20049;-46
2023/04/09 07:51:46;;;;;;;10.50;8.15;;;11.20;99.90;;;;;;5054840;28;20052;-47
2023/04/09 07:54:13;;;;;;;11.07;8.68;;;11.20;99.90;;;;;;5054460;28;20103;-47
2023/04/09 07:56:38;;;;;;;11.38;8.45;;;11.20;99.90;;;;;;5054908;28;20033;-43
2023/04/09 07:59:04;;;;;;;9.77;7.57;;;11.30;99.90;;;;;;5054314;28;20032;-45
2023/04/09 08:01:30;;;;;;;9.60;7.50;;;11.30;99.90;;;;;;5054756;28;20040;-47
2023/04/09 08:03:55;;;;;;;9.75;7.25;;;11.30;99.90;;;;;;5053460;28;20037;-46
2023/04/09 08:06:21;;;;;;;10.07;7.45;;;11.30;99.90;;;;;;5054518;28;20087;-45
2023/04/09 08:08:47;;;;;;;8.55;7.18;;;11.30;99.90;;;;;;5054375;28;20017;-44
2023/04/09 08:11:12;;;;;;;10.07;7.18;;;11.30;99.90;;;;;;5053480;28;20548;-45
2023/04/09 08:13:38;;;;;;;8.20;6.60;;;11.30;99.90;;;;;;5055063;28;20025;-45
2023/04/09 08:16:03;;;;;;;9.02;6.68;;;11.30;99.90;;;;;;5053421;28;20065;-45
2023/04/09 08:18:30;;;;;;;9.45;6.55;;;11.40;99.90;;;;;;5054165;28;20025;-47
2023/04/09 08:20:56;;;;;;;7.85;5.97;;;11.40;99.90;;;;;;5054593;28;20025;-45
2023/04/09 08:23:21;;;;;;;8.25;6.35;;;11.40;99.90;;;;;;5054164;28;20033;-45
2023/04/09 08:25:47;;;;;;;8.40;6.50;;;11.40;99.90;;;;;;5053832;28;20105;-44
2023/04/09 08:28:12;;;;;;;10.15;5.65;;;11.40;99.90;;;;;;5054059;28;20021;-44
2023/04/09 08:30:38;;;;;;;7.10;5.13;;;11.40;99.90;;;;;;5053515;28;20031;-44
2023/04/09 08:33:04;;;;;;;7.53;5.57;;;11.50;99.90;;;;;;5054250;28;20498;-45
2023/04/09 08:35:30;;;;;;;7.60;5.07;;;11.50;99.90;;;;;;5054139;28;20025;-45
2023/04/09 08:37:56;;;;;;;6.28;4.68;;;11.50;99.90;;;;;;5053829;28;20408;-45
2023/04/09 08:40:22;;;;;;;6.03;4.53;;;11.50;99.90;;;;;;5053527;28;20024;-44
2023/04/09 08:42:54;;;;;;;8.55;4.97;;;11.50;99.90;;;;;;5053815;28;20025;-47
2023/04/09 08:45:21;;;;;;;5.88;4.70;;;11.50;99.90;;;;;;5053321;28;20025;-45
2023/04/09 08:47:49;;;;;;;5.70;4.47;;;11.50;99.90;;;;;;5053464;28;20021;-46
2023/04/09 08:50:15;;;;;;;5.55;4.15;;;11.50;99.90;;;;;;5054175;28;20096;-44
2023/04/09 08:52:41;;;;;;;6.10;4.40;;;11.50;99.90;;;;;;5053732;28;20029;-44
2023/04/09 08:55:07;;;;;;;5.45;4.20;;;11.60;99.90;;;;;;5052625;28;20021;-43
2023/04/09 08:57:37;;;;;;;5.50;4.35;;;11.50;99.90;;;;;;5052206;28;20025;-47
2023/04/09 09:00:03;;;;;;;5.15;3.67;;;11.50;99.90;;;;;;5053645;28;20029;-44
2023/04/09 09:02:30;;;;;;;7.07;4.30;;;11.50;99.90;;;;;;5053039;28;20094;-45
2023/04/09 09:04:59;;;;;;;5.05;3.72;;;11.50;99.90;;;;;;5053082;28;20054;-45
2023/04/09 09:07:27;;;;;;;4.63;3.70;;;11.60;99.90;;;;;;5051787;28;20112;-47
2023/04/09 09:09:58;;;;;;;6.72;3.50;;;11.60;99.90;;;;;;5053507;28;20017;-46
2023/04/09 09:12:31;;;;;;;4.95;3.38;;;11.50;99.90;;;;;;5053043;28;20449;-45
2023/04/09 09:14:57;;;;;;;4.85;3.47;;;11.50;99.90;;;;;;5053466;28;20029;-47
2023/04/09 09:17:23;;;;;;;3.88;3.10;;;11.50;99.90;;;;;;5051672;28;20487;-43
2023/04/09 09:19:48;;;;;;;3.53;2.90;;;11.50;99.90;;;;;;5052210;28;20041;-43
2023/04/09 09:22:14;;;;;;;3.90;3.22;;;11.50;99.90;;;;;;5052067;28;20076;-45
2023/04/09 09:24:51;;;;;;;3.63;3.10;;;11.60;99.90;;;;;;5052233;28;20048;-44
2023/04/09 09:27:50;;;;;;;4.78;3.20;;;11.50;99.90;;;;;;5052122;28;20076;-46
2023/04/09 09:30:22;;;;;;;2.90;2.65;;;11.60;99.90;;;;;;5039913;28;20040;-43
2023/04/09 09:32:52;;;;;;;4.53;3.00;;;11.60;99.90;;;;;;5052986;28;20112;-47
2023/04/09 09:35:18;;;;;;;4.72;2.85;;;11.60;99.90;;;;;;5052692;28;20027;-44
2023/04/09 09:37:44;;;;;;;4.07;2.85;;;11.60;99.90;;;;;;5053466;28;20052;-43
2023/04/09 09:40:10;;;;;;;3.70;2.65;;;11.60;99.90;;;;;;5052815;28;20029;-46
2023/04/09 09:42:36;;;;;;;4.22;2.92;;;11.60;99.90;;;;;;5052108;28;20021;-46
2023/04/09 09:45:16;;;;;;;3.78;3.05;;;11.60;99.90;;;;;;5051975;28;20102;-45
2023/04/09 09:47:42;;;;;;;3.90;2.60;;;11.60;99.90;;;;;;5050967;28;20422;-44
2023/04/09 09:50:08;;;;;;;5.40;2.70;;;11.60;99.90;;;;;;5052055;28;20106;-47
2023/04/09 09:52:34;;;;;;;3.35;2.88;;;11.60;99.90;;;;;;5052336;28;20571;-44
2023/04/09 09:55:04;;;;;;;3.67;2.60;;;11.60;99.90;;;;;;5052109;28;20078;-44
2023/04/09 09:57:30;;;;;;;3.58;2.53;;;11.60;99.90;;;;;;5052065;28;20013;-45
2023/04/09 10:00:02;;;;;;;3.35;2.50;;;11.60;99.90;;;;;;5052740;28;20032;-44
2023/04/09 10:02:33;;;;;;;2.85;2.50;;;11.60;99.90;;;;;;5052440;28;20403;-47
2023/04/09 10:05:00;;;;;;;3.58;2.75;;;11.60;99.90;;;;;;5052197;28;20578;-43
2023/04/09 10:07:26;;;;;;;3.10;2.60;;;11.60;99.90;;;;;;5051757;28;20040;-45
2023/04/09 10:09:55;;;;;;;3.00;2.40;;;11.60;99.90;;;;;;5052579;28;20332;-46
2023/04/09 10:12:24;;;;;;;3.05;2.17;;;11.60;99.90;;;;;;5051679;28;20025;-47
2023/04/09 10:14:51;;;;;;;2.88;2.33;;;11.60;99.90;;;;;;5051421;28;20112;-45
2023/04/09 10:17:18;;;;;;;3.45;2.50;;;11.60;99.90;;;;;;5052071;28;20022;-45
2023/04/09 10:19:53;;;;;;;2.70;2.33;;;11.60;99.90;;;;;;5052410;28;20032;-44
2023/04/09 10:22:22;;;;;;;2.65;2.40;;;11.60;99.90;;;;;;5051960;28;20032;-45
2023/04/09 10:24:50;;;;;;;2.63;2.35;;;11.60;99.90;;;;;;5051604;28;20067;-44
2023/04/09 10:27:16;;;;;;;3.00;2.30;;;11.50;99.90;;;;;;5051282;28;20411;-44
2023/04/09 10:29:53;;;;;;;3.35;2.50;;;11.60;99.90;;;;;;5052516;28;20096;-45
2023/04/09 10:32:20;;;;;;;2.92;2.22;;;11.60;99.90;;;;;;5051334;28;20480;-45
2023/04/09 10:34:47;;;;;;;2.80;2.50;;;11.60;99.90;;;;;;5051966;28;20028;-45
2023/04/09 10:37:21;;;;;;;3.95;2.22;;;11.60;99.90;;;;;;5051059;28;20036;-45
2023/04/09 10:39:48;;;;;;;3.38;2.55;;;11.60;99.90;;;;;;5050915;28;20033;-45
2023/04/09 10:42:18;;;;;;;4.03;2.47;;;11.60;99.90;;;;;;5051748;28;20033;-44
2023/04/09 10:44:44;;;;;;;2.30;2.10;;;11.60;99.90;;;;;;5050949;28;20032;-45
2023/04/09 10:47:11;;;;;;;2.55;2.10;;;11.60;99.90;;;;;;5050857;28;20029;-46
2023/04/09 10:49:39;;;;;;;2.92;2.08;;;11.60;99.90;;;;;;5052282;28;20095;-45
2023/04/09 10:52:09;;;;;;;2.75;2.30;;;11.60;99.90;;;;;;5051025;28;20055;-45
2023/04/09 10:54:37;;;;;;;2.88;2.22;;;11.60;99.90;;;;;;5051750;28;20386;-45
2023/04/09 10:57:10;;;;;;;2.95;2.20;;;11.60;99.90;;;;;;5051266;28;20434;-44
2023/04/09 10:59:46;;;;;;;3.25;2.30;;;11.50;99.90;;;;;;5050979;28;20027;-47
2023/04/09 11:02:37;;;;;;;2.63;2.20;;;11.60;99.90;;;;;;5051479;28;20114;-45
2023/04/09 11:05:19;;;;;;;3.83;2.42;;;11.50;99.90;;;;;;5052178;28;20036;-44
2023/04/09 11:07:58;;;;;;;3.22;2.25;;;11.50;99.90;;;;;;5054267;28;20024;-44
2023/04/09 11:10:23;;;;;;;2.70;2.20;;;11.50;99.90;;;;;;5056386;28;20115;-45
2023/04/09 11:12:49;;;;;;;3.42;2.35;;;11.60;99.90;;;;;;5054883;28;20506;-44
2023/04/09 11:15:19;;;;;;;2.80;2.20;;;11.50;99.90;;;;;;5055493;28;20029;-45
2023/04/09 11:17:47;;;;;;;2.67;2.25;;;11.50;99.90;;;;;;5055172;28;20410;-44
2023/04/09 11:20:15;;;;;;;2.40;2.00;;;11.50;99.90;;;;;;5055220;28;20029;-45
2023/04/09 11:22:40;;;;;;;2.22;2.03;;;11.60;99.90;;;;;;5054553;28;20040;-46
2023/04/09 11:25:06;;;;;;;3.03;2.30;;;11.60;99.90;;;;;;5055554;28;20029;-45
2023/04/09 11:27:38;;;;;;;3.10;2.25;;;11.60;99.90;;;;;;5054898;28;20525;-44
2023/04/09 11:30:05;;;;;;;2.60;2.05;;;11.60;99.90;;;;;;5055568;28;20475;-45
2023/04/09 11:32:31;;;;;;;2.25;2.00;;;11.60;99.90;;;;;;5055847;28;20108;-44
2023/04/09 11:34:57;;;;;;;2.28;1.90;;;11.60;99.90;;;;;;5055915;28;20028;-45
2023/04/09 11:37:23;;;;;;;2.30;2.10;;;11.60;99.90;;;;;;5054131;28;20029;-45
2023/04/09 11:39:53;;;;;;;3.00;2.33;;;11.60;99.90;;;;;;5055653;28;20029;-47
2023/04/09 11:42:21;;;;;;;3.03;1.98;;;11.60;99.90;;;;;;5055631;28;20029;-46
2023/04/09 11:44:48;;;;;;;3.03;2.20;;;11.60;99.90;;;;;;5054828;28;20036;-44
2023/04/09 11:47:16;;;;;;;2.28;1.70;;;11.60;99.90;;;;;;5054854;28;20089;-44
2023/04/09 11:49:42;;;;;;;2.65;2.22;;;11.60;99.90;;;;;;5053890;28;20025;-46
2023/04/09 11:52:09;;;;;;;2.58;2.05;;;11.60;99.90;;;;;;5054479;28;20390;-45
2023/04/09 11:54:35;;;;;;;2.80;2.10;;;11.70;99.90;;;;;;5054044;28;20066;-44
2023/04/09 11:57:03;;;;;;;3.28;2.10;;;11.70;99.90;;;;;;5054392;28;20037;-44
2023/04/09 11:59:29;;;;;;;2.53;2.20;;;11.70;99.90;;;;;;5054471;28;20108;-44
2023/04/09 12:01:57;;;;;;;2.15;1.73;;;11.60;99.90;;;;;;5055180;28;20106;-44
2023/04/09 12:04:22;;;;;;;1.95;1.73;;;11.60;99.90;;;;;;5053570;28;20506;-44
2023/04/09 12:06:48;;;;;;;2.40;2.17;;;11.60;99.90;;;;;;5053201;28;20025;-45
2023/04/09 12:09:15;;;;;;;2.95;2.17;;;11.60;99.90;;;;;;5054201;28;20383;-44
2023/04/09 12:11:44;;;;;;;2.83;2.13;;;11.70;99.90;;;;;;5055682;28;20025;-45
2023/04/09 12:14:15;;;;;;;2.63;2.10;;;11.70;99.90;;;;;;5054499;28;20071;-44
2023/04/09 12:16:43;;;;;;;2.63;2.10;;;11.70;99.90;;;;;;5054648;28;20032;-45
2023/04/09 12:19:11;;;;;;;3.08;2.13;;;11.70;99.90;;;;;;5052883;28;20104;-46
2023/04/09 12:21:54;;;;;;;3.03;2.28;;;11.60;99.90;;;;;;5054533;28;20025;-44
2023/04/09 12:24:22;;;;;;;3.13;2.20;;;11.70;99.90;;;;;;5053356;28;20037;-46
2023/04/09 12:26:49;;;;;;;2.72;2.30;;;11.70;99.90;;;;;;5052642;28;20029;-44
2023/04/09 12:29:17;;;;;;;2.33;2.00;;;11.70;99.90;;;;;;5053888;28;20021;-44
2023/04/09 12:31:44;;;;;;;2.85;2.15;;;11.60;99.90;;;;;;5055094;28;20075;-46
2023/04/09 12:34:10;;;;;;;2.08;1.88;;;11.70;99.90;;;;;;5053487;28;20137;-44
2023/04/09 12:36:43;;;;;;;2.72;2.17;;;11.70;99.90;;;;;;5054390;28;20016;-44
2023/04/09 12:39:08;;;;;;;3.17;2.30;;;11.70;99.90;;;;;;5054231;28;20552;-46
2023/04/09 12:41:34;;;;;;;2.60;2.03;;;11.70;99.90;;;;;;5054415;28;20036;-44
2023/04/09 12:44:00;;;;;;;2.70;2.05;;;11.80;99.90;;;;;;5054287;28;20029;-45
2023/04/09 12:46:27;;;;;;;2.25;1.92;;;11.70;99.90;;;;;;5053756;28;20016;-44